sensor_id;sensor_type;location;lat;lon;timestamp;pressure;altitude;pressure_sealevel;temperature;humidity
53889;BME280;41337;51.400;-2.342;2023-07-29T00:02:06;100278.44;;;15.87;91.40
53889;BME280;41337;51.400;-2.342;2023-07-29T00:17:19;100271.78;;;15.78;91.39
53889;BME280;41337;51.400;-2.342;2023-07-29T00:22:24;100259.47;;;15.84;90.87
53889;BME280;41337;51.400;-2.342;2023-07-29T00:27:27;100257.28;;;15.81;90.95
53889;BME280;41337;51.400;-2.342;2023-07-29T00:32:31;100247.28;;;15.76;92.18
53889;BME280;41337;51.400;-2.342;2023-07-29T00:37:36;100242.00;;;15.76;92.46
53889;BME280;41337;51.400;-2.342;2023-07-29T00:48:13;100235.69;;;15.71;92.57
53889;BME280;41337;51.400;-2.342;2023-07-29T00:58:46;100238.91;;;15.79;90.87
53889;BME280;41337;51.400;-2.342;2023-07-29T01:03:57;100232.84;;;15.72;90.57
53889;BME280;41337;51.400;-2.342;2023-07-29T01:25:28;100220.84;;;15.63;91.75
53889;BME280;41337;51.400;-2.342;2023-07-29T01:30:40;100230.44;;;15.64;91.39
53889;BME280;41337;51.400;-2.342;2023-07-29T04:46:26;100208.47;;;14.35;93.57
53889;BME280;41337;51.400;-2.342;2023-07-29T05:02:30;100228.00;;;14.54;94.22
53889;BME280;41337;51.400;-2.342;2023-07-29T05:19:47;100217.13;;;14.82;94.26
53889;BME280;41337;51.400;-2.342;2023-07-29T05:25:18;100220.34;;;14.90;93.80
53889;BME280;41337;51.400;-2.342;2023-07-29T05:30:26;100221.75;;;14.99;93.38
53889;BME280;41337;51.400;-2.342;2023-07-29T05:41:04;100235.91;;;15.25;91.90
53889;BME280;41337;51.400;-2.342;2023-07-29T06:12:52;100235.78;;;15.58;89.72
53889;BME280;41337;51.400;-2.342;2023-07-29T06:23:09;100234.13;;;15.63;87.84
53889;BME280;41337;51.400;-2.342;2023-07-29T06:33:40;100238.50;;;15.82;87.40
53889;BME280;41337;51.400;-2.342;2023-07-29T06:38:45;100240.63;;;15.98;86.26
53889;BME280;41337;51.400;-2.342;2023-07-29T06:49:19;100249.28;;;16.12;84.36
53889;BME280;41337;51.400;-2.342;2023-07-29T06:54:29;100247.59;;;16.18;85.26
53889;BME280;41337;51.400;-2.342;2023-07-29T06:59:32;100251.75;;;16.57;84.28
53889;BME280;41337;51.400;-2.342;2023-07-29T07:04:35;100249.97;;;16.75;83.78
53889;BME280;41337;51.400;-2.342;2023-07-29T07:09:37;100256.75;;;16.71;82.79
53889;BME280;41337;51.400;-2.342;2023-07-29T07:19:46;100260.72;;;16.62;82.78
53889;BME280;41337;51.400;-2.342;2023-07-29T07:29:52;100257.41;;;16.67;82.80
53889;BME280;41337;51.400;-2.342;2023-07-29T07:39:59;100262.28;;;16.70;83.73
53889;BME280;41337;51.400;-2.342;2023-07-29T07:50:04;100259.84;;;16.86;81.63
53889;BME280;41337;51.400;-2.342;2023-07-29T08:00:11;100281.25;;;16.92;80.44
53889;BME280;41337;51.400;-2.342;2023-07-29T08:10:17;100274.75;;;17.24;76.98
53889;BME280;41337;51.400;-2.342;2023-07-29T08:20:26;100271.59;;;17.45;76.36
53889;BME280;41337;51.400;-2.342;2023-07-29T08:30:32;100263.44;;;17.28;76.29
53889;BME280;41337;51.400;-2.342;2023-07-29T08:56:11;100296.75;;;18.09;73.13
53889;BME280;41337;51.400;-2.342;2023-07-29T09:01:16;100304.19;;;18.18;71.95
53889;BME280;41337;51.400;-2.342;2023-07-29T09:06:19;100300.72;;;18.30;71.72
53889;BME280;41337;51.400;-2.342;2023-07-29T09:16:28;100302.72;;;18.81;68.40
53889;BME280;41337;51.400;-2.342;2023-07-29T09:26:33;100314.78;;;18.95;68.56
53889;BME280;41337;51.400;-2.342;2023-07-29T09:36:40;100316.75;;;18.76;69.63
53889;BME280;41337;51.400;-2.342;2023-07-29T09:46:46;100328.28;;;18.35;69.60
53889;BME280;41337;51.400;-2.342;2023-07-29T09:56:54;100311.69;;;18.10;69.21
53889;BME280;41337;51.400;-2.342;2023-07-29T10:06:59;100314.56;;;18.96;64.62
53889;BME280;41337;51.400;-2.342;2023-07-29T10:17:05;100302.78;;;19.32;60.66
53889;BME280;41337;51.400;-2.342;2023-07-29T10:27:18;100325.84;;;19.38;61.00
53889;BME280;41337;51.400;-2.342;2023-07-29T10:32:25;100328.19;;;19.23;60.59
53889;BME280;41337;51.400;-2.342;2023-07-29T10:42:29;100330.97;;;19.28;61.39
53889;BME280;41337;51.400;-2.342;2023-07-29T10:57:45;100347.41;;;19.48;59.38
53889;BME280;41337;51.400;-2.342;2023-07-29T11:03:04;100336.78;;;19.77;59.46
53889;BME280;41337;51.400;-2.342;2023-07-29T11:08:28;100365.78;;;19.73;58.09
53889;BME280;41337;51.400;-2.342;2023-07-29T11:13:32;100360.91;;;19.07;62.08
53889;BME280;41337;51.400;-2.342;2023-07-29T11:18:35;100364.88;;;19.16;63.45
53889;BME280;41337;51.400;-2.342;2023-07-29T11:23:36;100351.88;;;19.71;60.58
53889;BME280;41337;51.400;-2.342;2023-07-29T11:33:40;100354.88;;;20.03;62.18
53889;BME280;41337;51.400;-2.342;2023-07-29T11:38:41;100362.53;;;20.11;60.58
53889;BME280;41337;51.400;-2.342;2023-07-29T11:43:43;100385.53;;;20.74;60.05
53889;BME280;41337;51.400;-2.342;2023-07-29T11:48:47;100384.69;;;21.07;57.98
53889;BME280;41337;51.400;-2.342;2023-07-29T11:53:49;100404.25;;;20.57;57.22
53889;BME280;41337;51.400;-2.342;2023-07-29T11:58:50;100398.63;;;20.59;56.49
53889;BME280;41337;51.400;-2.342;2023-07-29T12:03:51;100397.91;;;20.63;58.04
53889;BME280;41337;51.400;-2.342;2023-07-29T12:08:52;100411.44;;;20.90;56.70
53889;BME280;41337;51.400;-2.342;2023-07-29T12:13:54;100390.72;;;21.35;51.90
53889;BME280;41337;51.400;-2.342;2023-07-29T12:19:00;100386.56;;;21.66;52.25
53889;BME280;41337;51.400;-2.342;2023-07-29T12:24:02;100403.63;;;21.60;51.75
53889;BME280;41337;51.400;-2.342;2023-07-29T12:29:18;100406.94;;;21.67;50.45
53889;BME280;41337;51.400;-2.342;2023-07-29T12:34:27;100409.41;;;21.74;50.40
53889;BME280;41337;51.400;-2.342;2023-07-29T12:39:32;100409.69;;;21.94;50.18
53889;BME280;41337;51.400;-2.342;2023-07-29T12:44:43;100413.72;;;22.18;49.10
53889;BME280;41337;51.400;-2.342;2023-07-29T12:49:46;100417.63;;;22.64;47.89
53889;BME280;41337;51.400;-2.342;2023-07-29T12:54:47;100421.25;;;22.80;46.31
53889;BME280;41337;51.400;-2.342;2023-07-29T12:59:50;100407.03;;;22.80;47.48
53889;BME280;41337;51.400;-2.342;2023-07-29T13:05:05;100417.63;;;22.64;48.59
53889;BME280;41337;51.400;-2.342;2023-07-29T13:10:08;100430.59;;;22.72;46.78
53889;BME280;41337;51.400;-2.342;2023-07-29T13:15:10;100430.81;;;22.39;47.48
53889;BME280;41337;51.400;-2.342;2023-07-29T13:20:13;100430.59;;;22.46;47.30
53889;BME280;41337;51.400;-2.342;2023-07-29T13:25:14;100440.31;;;22.52;49.49
53889;BME280;41337;51.400;-2.342;2023-07-29T13:30:15;100443.97;;;22.99;46.37
53889;BME280;41337;51.400;-2.342;2023-07-29T13:35:16;100441.22;;;22.94;46.23
53889;BME280;41337;51.400;-2.342;2023-07-29T13:40:17;100437.28;;;22.43;46.70
53889;BME280;41337;51.400;-2.342;2023-07-29T13:45:24;100464.34;;;22.15;51.42
53889;BME280;41337;51.400;-2.342;2023-07-29T13:50:25;100456.31;;;21.93;51.48
53889;BME280;41337;51.400;-2.342;2023-07-29T13:55:25;100446.03;;;22.33;48.86
53889;BME280;41337;51.400;-2.342;2023-07-29T14:00:29;100462.44;;;22.15;50.01
53889;BME280;41337;51.400;-2.342;2023-07-29T14:05:35;100456.44;;;21.86;48.75
53889;BME280;41337;51.400;-2.342;2023-07-29T14:10:36;100471.84;;;21.74;50.00
53889;BME280;41337;51.400;-2.342;2023-07-29T14:20:41;100499.22;;;22.20;49.00
53889;BME280;41337;51.400;-2.342;2023-07-29T14:25:42;100484.31;;;22.29;48.92
53889;BME280;41337;51.400;-2.342;2023-07-29T14:30:43;100483.78;;;22.05;50.31
53889;BME280;41337;51.400;-2.342;2023-07-29T14:35:44;100475.84;;;21.72;52.29
53889;BME280;41337;51.400;-2.342;2023-07-29T14:40:48;100480.97;;;22.17;50.77
53889;BME280;41337;51.400;-2.342;2023-07-29T14:45:52;100478.03;;;22.18;52.78
53889;BME280;41337;51.400;-2.342;2023-07-29T14:55:56;100477.63;;;22.58;51.33
53889;BME280;41337;51.400;-2.342;2023-07-29T15:00:57;100489.53;;;22.67;50.17
53889;BME280;41337;51.400;-2.342;2023-07-29T15:05:58;100482.44;;;22.29;49.80
53889;BME280;41337;51.400;-2.342;2023-07-29T15:11:02;100497.94;;;22.22;52.33
53889;BME280;41337;51.400;-2.342;2023-07-29T15:16:02;100496.50;;;22.42;49.44
53889;BME280;41337;51.400;-2.342;2023-07-29T15:21:04;100496.00;;;22.18;49.95
53889;BME280;41337;51.400;-2.342;2023-07-29T15:26:11;100497.28;;;22.15;49.50
53889;BME280;41337;51.400;-2.342;2023-07-29T15:31:14;100503.72;;;22.14;49.46
53889;BME280;41337;51.400;-2.342;2023-07-29T15:36:15;100496.16;;;22.11;48.10
53889;BME280;41337;51.400;-2.342;2023-07-29T15:41:16;100509.38;;;22.40;48.49
53889;BME280;41337;51.400;-2.342;2023-07-29T15:46:17;100494.19;;;22.23;49.80
53889;BME280;41337;51.400;-2.342;2023-07-29T15:51:18;100494.84;;;22.89;46.13
53889;BME280;41337;51.400;-2.342;2023-07-29T15:56:19;100496.03;;;22.45;46.45
53889;BME280;41337;51.400;-2.342;2023-07-29T16:01:22;100492.00;;;22.69;44.06
53889;BME280;41337;51.400;-2.342;2023-07-29T16:06:25;100497.41;;;22.74;46.24
53889;BME280;41337;51.400;-2.342;2023-07-29T16:11:27;100504.03;;;22.93;45.45
53889;BME280;41337;51.400;-2.342;2023-07-29T16:16:29;100496.50;;;22.90;45.81
53889;BME280;41337;51.400;-2.342;2023-07-29T16:21:29;100502.53;;;23.07;45.98
53889;BME280;41337;51.400;-2.342;2023-07-29T16:26:30;100499.69;;;22.87;46.37
53889;BME280;41337;51.400;-2.342;2023-07-29T16:31:41;100492.13;;;22.84;46.00
53889;BME280;41337;51.400;-2.342;2023-07-29T16:36:44;100492.31;;;22.72;45.67
53889;BME280;41337;51.400;-2.342;2023-07-29T16:41:45;100479.22;;;22.81;45.16
53889;BME280;41337;51.400;-2.342;2023-07-29T16:46:47;100497.03;;;22.92;45.02
53889;BME280;41337;51.400;-2.342;2023-07-29T16:51:49;100503.63;;;22.53;45.67
53889;BME280;41337;51.400;-2.342;2023-07-29T16:56:50;100491.81;;;22.05;47.50
53889;BME280;41337;51.400;-2.342;2023-07-29T17:01:51;100501.53;;;22.11;47.19
53889;BME280;41337;51.400;-2.342;2023-07-29T17:06:53;100505.22;;;21.67;48.92
53889;BME280;41337;51.400;-2.342;2023-07-29T17:11:56;100503.78;;;21.59;50.08
53889;BME280;41337;51.400;-2.342;2023-07-29T17:17:00;100514.88;;;21.68;49.00
53889;BME280;41337;51.400;-2.342;2023-07-29T17:22:01;100508.81;;;21.39;50.35
53889;BME280;41337;51.400;-2.342;2023-07-29T17:27:02;100512.06;;;21.08;51.14
53889;BME280;41337;51.400;-2.342;2023-07-29T17:32:03;100512.69;;;20.81;52.23
53889;BME280;41337;51.400;-2.342;2023-07-29T17:37:04;100524.31;;;20.59;51.96
53889;BME280;41337;51.400;-2.342;2023-07-29T17:42:05;100514.75;;;20.63;51.59
53889;BME280;41337;51.400;-2.342;2023-07-29T17:47:13;100548.13;;;21.05;49.81
53889;BME280;41337;51.400;-2.342;2023-07-29T17:52:17;100520.75;;;20.53;48.75
53889;BME280;41337;51.400;-2.342;2023-07-29T17:57:19;100520.69;;;20.25;49.16
53889;BME280;41337;51.400;-2.342;2023-07-29T18:02:20;100528.25;;;20.16;50.74
53889;BME280;41337;51.400;-2.342;2023-07-29T18:07:21;100519.81;;;20.47;49.36
53889;BME280;41337;51.400;-2.342;2023-07-29T18:12:27;100512.44;;;20.26;49.83
53889;BME280;41337;51.400;-2.342;2023-07-29T18:17:29;100525.41;;;20.06;51.83
53889;BME280;41337;51.400;-2.342;2023-07-29T18:22:33;100527.44;;;20.16;52.22
53889;BME280;41337;51.400;-2.342;2023-07-29T18:27:34;100512.63;;;19.96;54.41
53889;BME280;41337;51.400;-2.342;2023-07-29T18:32:37;100518.69;;;19.92;55.07
53889;BME280;41337;51.400;-2.342;2023-07-29T18:37:38;100516.38;;;19.84;55.35
53889;BME280;41337;51.400;-2.342;2023-07-29T18:42:40;100514.19;;;19.81;55.67
53889;BME280;41337;51.400;-2.342;2023-07-29T18:47:41;100517.31;;;19.89;53.85
53889;BME280;41337;51.400;-2.342;2023-07-29T18:52:43;100510.22;;;19.72;53.20
53889;BME280;41337;51.400;-2.342;2023-07-29T18:57:44;100534.97;;;19.55;52.39
53889;BME280;41337;51.400;-2.342;2023-07-29T19:02:45;100517.47;;;19.06;54.65
53889;BME280;41337;51.400;-2.342;2023-07-29T19:07:46;100526.28;;;19.07;54.40
53889;BME280;41337;51.400;-2.342;2023-07-29T19:12:47;100525.00;;;18.98;55.40
53889;BME280;41337;51.400;-2.342;2023-07-29T19:17:50;100523.00;;;18.82;55.64
53889;BME280;41337;51.400;-2.342;2023-07-29T19:22:51;100519.94;;;18.66;56.37
53889;BME280;41337;51.400;-2.342;2023-07-29T19:27:52;100521.72;;;18.54;57.26
53889;BME280;41337;51.400;-2.342;2023-07-29T19:32:53;100537.28;;;18.57;56.92
53889;BME280;41337;51.400;-2.342;2023-07-29T19:37:54;100540.53;;;18.59;57.84
53889;BME280;41337;51.400;-2.342;2023-07-29T19:42:56;100535.66;;;18.56;57.92
53889;BME280;41337;51.400;-2.342;2023-07-29T19:47:57;100526.66;;;18.51;57.67
53889;BME280;41337;51.400;-2.342;2023-07-29T19:52:58;100540.66;;;18.46;58.24
53889;BME280;41337;51.400;-2.342;2023-07-29T19:57:59;100525.44;;;18.35;59.13
53889;BME280;41337;51.400;-2.342;2023-07-29T20:03:00;100532.16;;;18.38;58.58
53889;BME280;41337;51.400;-2.342;2023-07-29T20:08:00;100534.56;;;18.27;58.75
53889;BME280;41337;51.400;-2.342;2023-07-29T20:13:02;100538.94;;;18.22;59.33
53889;BME280;41337;51.400;-2.342;2023-07-29T20:18:06;100545.88;;;18.23;59.99
53889;BME280;41337;51.400;-2.342;2023-07-29T20:23:07;100558.69;;;18.33;61.24
53889;BME280;41337;51.400;-2.342;2023-07-29T20:28:08;100560.19;;;18.29;59.81
53889;BME280;41337;51.400;-2.342;2023-07-29T20:33:09;100555.28;;;18.25;60.74
53889;BME280;41337;51.400;-2.342;2023-07-29T20:38:10;100553.72;;;18.18;60.24
53889;BME280;41337;51.400;-2.342;2023-07-29T20:48:21;100554.31;;;18.02;60.13
53889;BME280;41337;51.400;-2.342;2023-07-29T20:53:22;100558.81;;;17.83;60.65
53889;BME280;41337;51.400;-2.342;2023-07-29T20:58:23;100558.06;;;17.76;61.08
53889;BME280;41337;51.400;-2.342;2023-07-29T21:03:24;100563.03;;;17.72;60.84
53889;BME280;41337;51.400;-2.342;2023-07-29T21:08:26;100564.88;;;17.72;61.29
53889;BME280;41337;51.400;-2.342;2023-07-29T21:13:27;100562.94;;;17.61;61.50
53889;BME280;41337;51.400;-2.342;2023-07-29T21:18:28;100569.50;;;17.58;62.08
53889;BME280;41337;51.400;-2.342;2023-07-29T21:23:29;100572.41;;;17.50;61.90
53889;BME280;41337;51.400;-2.342;2023-07-29T21:28:30;100568.91;;;17.50;62.28
53889;BME280;41337;51.400;-2.342;2023-07-29T21:33:31;100572.31;;;17.39;62.44
53889;BME280;41337;51.400;-2.342;2023-07-29T21:38:37;100574.69;;;17.22;61.13
53889;BME280;41337;51.400;-2.342;2023-07-29T21:43:44;100570.28;;;17.09;61.65
53889;BME280;41337;51.400;-2.342;2023-07-29T21:48:46;100579.28;;;17.08;62.63
53889;BME280;41337;51.400;-2.342;2023-07-29T21:53:53;100581.38;;;17.00;62.68
53889;BME280;41337;51.400;-2.342;2023-07-29T21:58:54;100583.00;;;17.01;63.74
53889;BME280;41337;51.400;-2.342;2023-07-29T22:03:55;100578.06;;;17.04;64.03
53889;BME280;41337;51.400;-2.342;2023-07-29T22:08:55;100586.25;;;17.03;65.52
53889;BME280;41337;51.400;-2.342;2023-07-29T22:13:58;100590.03;;;16.88;66.36
53889;BME280;41337;51.400;-2.342;2023-07-29T22:19:01;100596.19;;;16.82;66.86
53889;BME280;41337;51.400;-2.342;2023-07-29T22:24:04;100601.56;;;16.76;67.54
53889;BME280;41337;51.400;-2.342;2023-07-29T22:29:10;100607.13;;;16.61;69.51
53889;BME280;41337;51.400;-2.342;2023-07-29T22:34:11;100603.66;;;16.54;70.07
53889;BME280;41337;51.400;-2.342;2023-07-29T22:39:15;100607.34;;;16.53;70.33
53889;BME280;41337;51.400;-2.342;2023-07-29T22:44:16;100616.94;;;16.54;70.69
53889;BME280;41337;51.400;-2.342;2023-07-29T22:49:17;100618.97;;;16.52;71.12
53889;BME280;41337;51.400;-2.342;2023-07-29T22:54:18;100618.44;;;16.37;71.80
53889;BME280;41337;51.400;-2.342;2023-07-29T22:59:19;100614.34;;;16.34;72.31
53889;BME280;41337;51.400;-2.342;2023-07-29T23:04:20;100616.84;;;16.29;72.37
53889;BME280;41337;51.400;-2.342;2023-07-29T23:09:21;100614.38;;;16.28;72.67
53889;BME280;41337;51.400;-2.342;2023-07-29T23:14:21;100619.88;;;16.33;71.75
53889;BME280;41337;51.400;-2.342;2023-07-29T23:19:23;100622.53;;;16.33;72.49
53889;BME280;41337;51.400;-2.342;2023-07-29T23:24:24;100618.19;;;16.45;72.09
53889;BME280;41337;51.400;-2.342;2023-07-29T23:29:27;100613.72;;;16.39;70.95
53889;BME280;41337;51.400;-2.342;2023-07-29T23:34:35;100606.00;;;16.18;71.40
53889;BME280;41337;51.400;-2.342;2023-07-29T23:39:36;100616.44;;;16.13;71.71
53889;BME280;41337;51.400;-2.342;2023-07-29T23:44:37;100615.22;;;16.09;71.65
53889;BME280;41337;51.400;-2.342;2023-07-29T23:49:38;100610.97;;;16.08;71.80
